Time;durP1;ratioP1;P1;durP2;ratioP2;P2;SDS_P1;SDS_P2;PMS_P1;PMS_P2;Temp;Humidity;BMP_temperature;BMP_pressure;BME280_temperature;BME280_humidity;BME280_pressure;Samples;Min_cycle;Max_cycle;Signal;HPM_P1;HPM_P2
2023/10/10 00:00:57;;;;;;;8.63;5.40;;;11.60;99.90;;;;;;4973939;28;20841;-75
2023/10/10 00:03:27;;;;;;;10.00;5.03;;;11.50;99.90;;;;;;4969970;28;20249;-74
2023/10/10 00:05:55;;;;;;;6.60;4.60;;;11.50;99.90;;;;;;4961370;28;20187;-73
2023/10/10 00:08:27;;;;;;;8.23;5.00;;;11.60;99.90;;;;;;4960876;28;20207;-75
2023/10/10 00:10:55;;;;;;;14.33;5.80;;;11.60;99.90;;;;;;4958961;28;20207;-73
2023/10/10 00:13:23;;;;;;;7.43;4.90;;;11.50;99.90;;;;;;4967982;28;20575;-73
2023/10/10 00:15:55;;;;;;;7.50;3.90;;;11.50;99.90;;;;;;4958389;28;20210;-75
2023/10/10 00:18:22;;;;;;;8.27;5.60;;;11.60;99.90;;;;;;4963691;28;20634;-74
2023/10/10 00:21:24;;;;;;;8.83;4.80;;;11.60;99.90;;;;;;4963221;28;20174;-74
2023/10/10 00:23:42;;;;;;;9.30;5.93;;;11.60;99.90;;;;;;4966383;28;20198;-74
2023/10/10 00:26:14;;;;;;;6.90;4.70;;;11.50;99.90;;;;;;4960523;28;20708;-74
2023/10/10 00:28:44;;;;;;;7.37;4.67;;;11.50;99.90;;;;;;4963207;28;20217;-74
2023/10/10 00:31:18;;;;;;;5.97;4.33;;;11.50;99.90;;;;;;4959852;28;20207;-74
2023/10/10 00:33:45;;;;;;;6.53;4.73;;;11.50;99.90;;;;;;4965421;28;20222;-73
2023/10/10 00:36:20;;;;;;;6.40;4.53;;;11.50;99.90;;;;;;4964295;28;20633;-74
2023/10/10 00:38:58;;;;;;;8.03;4.23;;;11.50;99.90;;;;;;4964086;28;20229;-73
2023/10/10 00:41:26;;;;;;;6.23;3.80;;;11.50;99.90;;;;;;4962822;28;20229;-73
2023/10/10 00:43:52;;;;;;;5.53;4.20;;;11.50;99.90;;;;;;4959815;28;20219;-73
2023/10/10 00:46:23;;;;;;;6.70;4.40;;;11.40;99.90;;;;;;4959821;28;20292;-74
2023/10/10 00:48:59;;;;;;;6.40;4.37;;;11.50;99.90;;;;;;4961063;28;20624;-73
2023/10/10 00:51:29;;;;;;;5.67;3.53;;;11.40;99.90;;;;;;4956457;28;20656;-72
2023/10/10 00:54:11;;;;;;;7.47;4.60;;;11.40;99.90;;;;;;4968838;28;20202;-72
2023/10/10 00:56:37;;;;;;;7.93;4.67;;;11.40;99.90;;;;;;4962407;28;20211;-73
2023/10/10 00:59:06;;;;;;;7.33;4.40;;;11.40;99.90;;;;;;4959497;28;20222;-73
2023/10/10 01:01:33;;;;;;;8.40;4.73;;;11.50;99.90;;;;;;4961865;28;20211;-73
2023/10/10 01:03:59;;;;;;;7.43;4.40;;;11.40;99.90;;;;;;4960251;28;20226;-73
2023/10/10 01:06:25;;;;;;;10.33;4.87;;;11.40;99.90;;;;;;4962398;28;20228;-72
2023/10/10 01:08:58;;;;;;;8.33;5.03;;;11.50;99.90;;;;;;4969118;28;20170;-72
2023/10/10 01:11:24;;;;;;;7.80;4.60;;;11.50;99.90;;;;;;4960011;28;20221;-71
2023/10/10 01:13:53;;;;;;;6.93;4.33;;;11.50;99.90;;;;;;4960085;28;20865;-73
2023/10/10 01:16:23;;;;;;;8.60;4.70;;;11.50;99.90;;;;;;4959398;28;20218;-73
2023/10/10 01:19:08;;;;;;;5.97;4.47;;;11.50;99.90;;;;;;4974460;28;20202;-73
2023/10/10 01:21:43;;;;;;;6.00;4.13;;;11.50;99.90;;;;;;4967280;28;20336;-73
2023/10/10 01:24:12;;;;;;;8.47;4.03;;;11.60;99.90;;;;;;4962195;28;20209;-74
2023/10/10 01:26:38;;;;;;;8.13;4.57;;;11.50;99.90;;;;;;4960516;28;20224;-73
2023/10/10 01:29:40;;;;;;;6.60;3.77;;;11.60;99.90;;;;;;4958407;28;20220;-73
2023/10/10 01:31:59;;;;;;;6.30;4.23;;;11.60;99.90;;;;;;4963220;28;20208;-74
2023/10/10 01:34:32;;;;;;;7.13;4.57;;;11.60;99.90;;;;;;4958534;28;20265;-71
2023/10/10 01:37:07;;;;;;;5.80;4.00;;;11.50;99.90;;;;;;4961440;28;20238;-73
2023/10/10 01:39:45;;;;;;;7.00;3.70;;;11.60;99.90;;;;;;4960270;28;20292;-73
2023/10/10 01:42:12;;;;;;;5.70;3.90;;;11.60;99.90;;;;;;4960090;28;20221;-73
2023/10/10 01:44:38;;;;;;;7.33;4.00;;;11.60;99.90;;;;;;4963445;28;20206;-74
2023/10/10 01:47:09;;;;;;;6.67;3.97;;;11.70;99.90;;;;;;4960300;28;20198;-73
2023/10/10 01:49:35;;;;;;;6.77;3.97;;;11.70;99.90;;;;;;4962225;28;20285;-74
2023/10/10 01:52:01;;;;;;;6.57;4.23;;;11.60;99.90;;;;;;4955294;28;20341;-73
2023/10/10 01:54:41;;;;;;;6.00;3.73;;;11.70;99.90;;;;;;4964760;28;20202;-72
2023/10/10 01:57:09;;;;;;;5.47;3.60;;;11.60;99.90;;;;;;4958588;28;20171;-73
2023/10/10 01:59:37;;;;;;;6.75;4.15;;;11.70;99.90;;;;;;4961493;28;20217;-73
2023/10/10 02:02:10;;;;;;;5.85;4.05;;;11.70;99.90;;;;;;4959194;28;20322;-72
2023/10/10 02:04:36;;;;;;;6.90;3.87;;;11.60;99.90;;;;;;4975070;28;20320;-73
2023/10/10 02:07:08;;;;;;;6.50;3.93;;;11.60;99.90;;;;;;4947526;28;20243;-73
2023/10/10 02:09:40;;;;;;;4.73;3.63;;;11.70;99.90;;;;;;4962415;28;20209;-73
2023/10/10 02:12:14;;;;;;;5.63;3.53;;;11.70;99.90;;;;;;4954433;28;20202;-74
2023/10/10 02:14:43;;;;;;;5.53;3.28;;;11.70;99.90;;;;;;4956222;28;20226;-73
2023/10/10 02:17:20;;;;;;;6.03;3.60;;;11.70;99.90;;;;;;4956495;28;20202;-73
2023/10/10 02:19:53;;;;;;;5.97;3.63;;;11.60;99.90;;;;;;4956661;28;20221;-73
2023/10/10 02:28:02;;;;;;;9.33;4.63;;;11.70;99.90;;;;;;4958851;28;20218;-74
2023/10/10 02:30:40;;;;;;;6.83;4.03;;;11.70;99.90;;;;;;4961271;28;20174;-73
2023/10/10 02:35:54;;;;;;;7.67;4.70;;;11.70;99.90;;;;;;4959235;28;20213;-73
2023/10/10 02:38:33;;;;;;;6.97;4.20;;;11.70;99.90;;;;;;4962702;28;20206;-74
2023/10/10 02:41:22;;;;;;;9.32;4.60;;;11.70;99.90;;;;;;4965743;28;20990;-73
2023/10/10 02:46:38;;;;;;;6.78;4.68;;;11.80;99.90;;;;;;4959354;28;20203;-74
2023/10/10 02:49:09;;;;;;;7.65;4.43;;;11.80;99.90;;;;;;4962989;28;20298;-74
2023/10/10 02:51:41;;;;;;;6.50;4.17;;;11.80;99.90;;;;;;4958879;28;20576;-72
2023/10/10 02:54:27;;;;;;;11.07;4.85;;;11.80;99.90;;;;;;4956902;28;20566;-72
2023/10/10 02:57:47;;;;;;;7.53;5.07;;;11.70;99.90;;;;;;4957467;28;20219;-73
2023/10/10 02:59:50;;;;;;;6.50;4.10;;;11.80;99.90;;;;;;4960579;28;20665;-73
2023/10/10 03:02:22;;;;;;;8.52;4.88;;;11.80;99.90;;;;;;4968726;28;20217;-73
2023/10/10 03:04:52;;;;;;;8.68;5.03;;;11.80;99.90;;;;;;4955697;28;20245;-73
2023/10/10 03:07:27;;;;;;;8.07;4.68;;;11.80;99.90;;;;;;4957980;28;20246;-73
2023/10/10 03:12:30;;;;;;;10.45;5.65;;;11.80;99.90;;;;;;4957849;28;20768;-72
2023/10/10 03:15:12;;;;;;;7.80;5.00;;;11.80;99.90;;;;;;4960145;28;20658;-71
2023/10/10 03:20:39;;;;;;;9.90;5.63;;;11.90;99.90;;;;;;4963822;28;20762;-73
2023/10/10 03:26:05;;;;;;;12.52;5.10;;;11.90;99.90;;;;;;4957748;28;20365;-72
2023/10/10 03:28:40;;;;;;;10.50;5.63;;;12.00;99.90;;;;;;4959944;28;20229;-71
2023/10/10 05:25:22;;;;;;;6.50;4.38;;;13.00;99.90;;;;;;4964519;28;20277;-73
2023/10/10 05:27:51;;;;;;;8.02;3.85;;;13.10;99.90;;;;;;4960919;28;20206;-69
2023/10/10 05:30:23;;;;;;;6.47;4.18;;;13.20;99.90;;;;;;4963125;28;20202;-73
2023/10/10 05:33:02;;;;;;;8.02;4.05;;;13.20;99.90;;;;;;4961025;28;20854;-72
2023/10/10 05:35:28;;;;;;;3.95;3.00;;;13.30;99.90;;;;;;4959589;28;20198;-73
2023/10/10 05:37:54;;;;;;;6.25;3.45;;;13.30;99.90;;;;;;4961994;28;20547;-71
2023/10/10 05:40:20;;;;;;;6.22;3.55;;;13.30;99.90;;;;;;4959210;28;20596;-73
2023/10/10 05:42:46;;;;;;;6.72;3.90;;;13.30;99.90;;;;;;4957629;28;20206;-73
2023/10/10 05:45:13;;;;;;;7.32;3.80;;;13.40;99.90;;;;;;4964804;28;20285;-73
2023/10/10 05:47:40;;;;;;;5.72;3.63;;;13.40;99.90;;;;;;4964471;28;20261;-73
2023/10/10 05:50:10;;;;;;;5.60;3.30;;;13.40;99.90;;;;;;4964816;28;20199;-73
2023/10/10 05:52:39;;;;;;;5.88;3.13;;;13.50;99.90;;;;;;4962256;28;20210;-73
2023/10/10 05:55:10;;;;;;;6.13;3.42;;;13.50;99.90;;;;;;4965783;28;20206;-73
2023/10/10 05:57:37;;;;;;;7.20;3.33;;;13.60;99.90;;;;;;4967384;28;20217;-73
2023/10/10 06:00:27;;;;;;;7.07;3.03;;;13.60;99.90;;;;;;4966792;28;20174;-72
2023/10/10 06:02:50;;;;;;;8.75;3.05;;;13.70;99.90;;;;;;4965116;28;20724;-72
2023/10/10 06:05:17;;;;;;;8.30;3.58;;;13.70;99.90;;;;;;4971361;28;20306;-72
2023/10/10 06:07:43;;;;;;;9.00;3.55;;;13.70;99.90;;;;;;4962331;28;20755;-72
2023/10/10 06:10:18;;;;;;;6.55;3.33;;;13.80;99.90;;;;;;4966505;28;20210;-72
2023/10/10 06:12:45;;;;;;;5.80;3.03;;;13.80;99.90;;;;;;4962800;28;20216;-73
2023/10/10 06:15:18;;;;;;;5.25;2.75;;;13.80;99.90;;;;;;4964183;28;20228;-73
2023/10/10 06:17:44;;;;;;;4.50;2.80;;;13.80;99.90;;;;;;4962847;28;20194;-73
2023/10/10 06:20:15;;;;;;;5.30;3.00;;;13.80;99.90;;;;;;4976440;28;20277;-73
2023/10/10 06:22:41;;;;;;;5.30;2.60;;;13.90;99.90;;;;;;4963888;28;20210;-73
2023/10/10 06:25:09;;;;;;;5.15;2.97;;;14.00;99.90;;;;;;4972879;28;20280;-73
2023/10/10 06:27:40;;;;;;;5.78;2.28;;;14.00;99.90;;;;;;4964648;28;20207;-73
2023/10/10 06:30:17;;;;;;;4.35;2.83;;;14.00;99.90;;;;;;4963374;28;20186;-74
2023/10/10 06:32:44;;;;;;;4.70;3.25;;;14.00;99.90;;;;;;4963160;28;20763;-74
2023/10/10 06:35:25;;;;;;;3.95;2.53;;;14.00;99.90;;;;;;4964285;28;20284;-73
2023/10/10 06:37:54;;;;;;;6.60;2.88;;;14.00;99.90;;;;;;4972175;28;20213;-74
2023/10/10 06:40:29;;;;;;;6.55;2.58;;;14.00;99.90;;;;;;4967511;28;20207;-74
2023/10/10 06:42:56;;;;;;;5.10;2.45;;;14.10;99.90;;;;;;4963044;28;20296;-71
2023/10/10 06:45:27;;;;;;;8.10;2.67;;;14.20;99.90;;;;;;4963268;28;20256;-73
2023/10/10 06:47:54;;;;;;;5.95;2.85;;;14.20;99.90;;;;;;4963264;28;20178;-73
2023/10/10 06:50:23;;;;;;;6.85;3.40;;;14.20;99.90;;;;;;4972584;28;20194;-74
2023/10/10 06:52:52;;;;;;;10.63;2.90;;;14.30;99.90;;;;;;4965976;28;20258;-73
2023/10/10 06:55:36;;;;;;;5.55;2.83;;;14.30;99.90;;;;;;4976095;28;20252;-73
2023/10/10 06:58:02;;;;;;;5.43;2.13;;;14.30;99.90;;;;;;4959076;28;20576;-72
2023/10/10 07:02:59;;;;;;;4.38;2.40;;;14.30;99.90;;;;;;4963225;28;20261;-73
2023/10/10 07:05:33;;;;;;;3.67;2.72;;;14.20;99.90;;;;;;4964051;28;20569;-73
2023/10/10 07:07:59;;;;;;;7.18;2.85;;;14.30;99.90;;;;;;4961101;28;20203;-71
2023/10/10 07:10:37;;;;;;;4.95;2.65;;;14.30;99.90;;;;;;4963125;28;20260;-73
2023/10/10 07:13:03;;;;;;;3.80;2.63;;;14.40;99.90;;;;;;4964554;28;20240;-72
2023/10/10 07:15:39;;;;;;;4.63;2.38;;;14.40;99.90;;;;;;4961958;28;20178;-73
2023/10/10 07:18:23;;;;;;;4.68;2.95;;;14.40;99.90;;;;;;4968344;28;20667;-73
2023/10/10 07:23:41;;;;;;;5.28;2.45;;;14.40;99.90;;;;;;4962507;28;20217;-70
2023/10/10 07:26:18;;;;;;;3.95;2.40;;;14.40;99.90;;;;;;4973556;28;20226;-73
2023/10/10 07:28:53;;;;;;;5.82;2.80;;;14.50;99.90;;;;;;4969131;28;20214;-73
2023/10/10 07:31:23;;;;;;;5.38;3.40;;;14.50;99.90;;;;;;4974541;28;20213;-74
2023/10/10 07:34:04;;;;;;;7.65;3.05;;;14.50;99.90;;;;;;4968771;28;20222;-72
2023/10/10 07:36:33;;;;;;;5.45;2.70;;;14.50;99.90;;;;;;4975136;28;20175;-73
2023/10/10 07:41:45;;;;;;;4.32;2.70;;;14.50;99.90;;;;;;4966809;28;20221;-74
2023/10/10 07:44:11;;;;;;;5.60;2.90;;;14.50;99.90;;;;;;4963613;28;20235;-74
2023/10/10 07:46:37;;;;;;;4.57;3.35;;;14.50;99.90;;;;;;4958315;28;20207;-73
2023/10/10 07:49:03;;;;;;;8.88;3.17;;;14.60;99.90;;;;;;4965095;28;20572;-72
2023/10/10 07:51:29;;;;;;;5.97;3.60;;;14.70;99.90;;;;;;4961786;28;20198;-73
2023/10/10 07:54:12;;;;;;;6.78;3.63;;;14.70;99.90;;;;;;4962635;28;20195;-72
2023/10/10 07:56:45;;;;;;;5.68;3.33;;;14.80;99.90;;;;;;4965202;28;20210;-73
2023/10/10 07:59:17;;;;;;;4.15;3.00;;;14.80;99.90;;;;;;4963663;28;20238;-73
2023/10/10 08:01:43;;;;;;;5.28;2.90;;;14.90;99.90;;;;;;4967518;28;20206;-74
2023/10/10 08:04:13;;;;;;;6.18;3.35;;;15.00;99.90;;;;;;4967489;28;20222;-74
2023/10/10 08:06:39;;;;;;;4.60;3.00;;;15.10;99.90;;;;;;4961165;28;20253;-74
2023/10/10 08:11:44;;;;;;;8.02;3.13;;;15.20;99.90;;;;;;4960321;28;20215;-73
2023/10/10 08:14:10;;;;;;;6.18;2.90;;;15.30;99.90;;;;;;4964786;28;20214;-72
2023/10/10 08:16:40;;;;;;;7.25;2.90;;;15.30;99.90;;;;;;4964681;28;20202;-73
2023/10/10 08:19:10;;;;;;;3.60;2.40;;;15.40;99.90;;;;;;4962518;28;20210;-72
2023/10/10 08:21:38;;;;;;;2.67;2.25;;;15.40;99.90;;;;;;4961674;28;20221;-73
2023/10/10 08:24:11;;;;;;;3.78;2.33;;;15.60;99.90;;;;;;4961585;28;20574;-73
2023/10/10 08:26:40;;;;;;;4.80;2.28;;;15.70;99.90;;;;;;4952276;28;20210;-74
2023/10/10 08:29:07;;;;;;;4.18;2.60;;;15.80;99.90;;;;;;4960892;28;20214;-71
2023/10/10 08:31:33;;;;;;;3.25;2.10;;;16.00;99.90;;;;;;4965125;28;20405;-73
2023/10/10 08:33:59;;;;;;;3.85;2.22;;;16.20;99.90;;;;;;4968386;28;20828;-73
2023/10/10 08:36:24;;;;;;;5.15;2.10;;;16.40;99.90;;;;;;4963414;28;20167;-74
2023/10/10 08:38:58;;;;;;;5.88;2.30;;;16.50;99.90;;;;;;4962385;28;20187;-74
2023/10/10 08:41:29;;;;;;;5.13;2.55;;;16.60;99.90;;;;;;4962360;28;20202;-73
2023/10/10 08:43:58;;;;;;;4.03;2.58;;;16.50;99.90;;;;;;4960529;28;20345;-73
2023/10/10 08:46:30;;;;;;;3.53;2.08;;;16.50;99.90;;;;;;4961165;28;20248;-73
2023/10/10 08:49:00;;;;;;;3.08;2.25;;;16.40;99.90;;;;;;4963598;28;20207;-72
2023/10/10 08:51:33;;;;;;;2.97;1.92;;;16.30;99.90;;;;;;4971029;28;20233;-74
2023/10/10 08:54:09;;;;;;;5.38;3.22;;;16.20;99.90;;;;;;4961673;28;20190;-74
2023/10/10 08:57:00;;;;;;;2.92;1.98;;;16.10;99.90;;;;;;4959445;28;20220;-74
2023/10/10 08:59:28;;;;;;;2.85;2.13;;;16.00;99.90;;;;;;4959479;28;20214;-73
2023/10/10 09:01:56;;;;;;;1.92;1.70;;;16.00;99.90;;;;;;4957321;28;20219;-73
2023/10/10 09:04:27;;;;;;;3.17;1.88;;;16.10;99.90;;;;;;4962236;28;20210;-74
2023/10/10 09:07:00;;;;;;;2.03;1.83;;;16.20;99.90;;;;;;4959625;28;20218;-73
2023/10/10 09:10:04;;;;;;;2.40;1.52;;;16.40;99.90;;;;;;4962127;28;20178;-74
2023/10/10 09:12:20;;;;;;;2.65;1.70;;;16.50;99.90;;;;;;4960982;28;20234;-73
2023/10/10 09:14:50;;;;;;;3.13;1.77;;;16.80;99.90;;;;;;4959732;28;20199;-74
2023/10/10 09:17:28;;;;;;;2.63;1.67;;;16.80;99.90;;;;;;4957266;28;20658;-72
2023/10/10 09:20:00;;;;;;;2.63;1.65;;;16.70;99.90;;;;;;4958975;28;20297;-72
2023/10/10 09:22:42;;;;;;;4.25;2.13;;;16.70;99.90;;;;;;4959106;28;20210;-74
2023/10/10 09:25:18;;;;;;;8.40;3.20;;;16.60;99.90;;;;;;4963296;28;20292;-73
2023/10/10 09:28:00;;;;;;;3.17;2.33;;;16.70;99.90;;;;;;4962757;28;20201;-74
2023/10/10 09:30:40;;;;;;;4.13;1.95;;;16.90;99.90;;;;;;4962613;28;20183;-74
2023/10/10 09:35:58;;;;;;;4.00;2.05;;;17.00;99.90;;;;;;4964673;28;20213;-73
2023/10/10 09:38:27;;;;;;;1.90;1.55;;;17.10;99.90;;;;;;4961450;28;20231;-76
2023/10/10 09:41:10;;;;;;;2.45;1.90;;;17.10;99.90;;;;;;4960825;28;20205;-72
2023/10/10 09:58:00;;;;;;;2.63;1.63;;;16.90;99.90;;;;;;4959634;28;20210;-74
2023/10/10 10:00:45;;;;;;;2.55;1.48;;;16.90;99.90;;;;;;4954539;28;20217;-74
2023/10/10 10:03:31;;;;;;;3.40;1.63;;;16.90;99.90;;;;;;4963877;28;20203;-73
2023/10/10 10:09:17;;;;;;;5.63;3.15;;;17.10;99.90;;;;;;4963546;28;20202;-74
2023/10/10 10:12:14;;;;;;;4.10;2.15;;;17.20;99.90;;;;;;4962667;28;20206;-74
2023/10/10 10:15:05;;;;;;;1.90;1.50;;;17.10;99.90;;;;;;4963933;28;20206;-74
2023/10/10 10:17:47;;;;;;;4.10;1.55;;;17.00;99.90;;;;;;4961157;28;20708;-74
2023/10/10 10:20:22;;;;;;;3.10;1.30;;;16.90;99.90;;;;;;4961168;28;20233;-74
2023/10/10 10:22:59;;;;;;;3.80;1.73;;;16.80;99.90;;;;;;4963528;28;20214;-73
2023/10/10 10:25:28;;;;;;;3.72;1.20;;;16.70;99.90;;;;;;4958435;28;20217;-74
2023/10/10 10:28:10;;;;;;;3.47;1.83;;;16.60;99.90;;;;;;4963600;28;20217;-73
2023/10/10 10:30:47;;;;;;;2.00;1.70;;;16.50;99.90;;;;;;4960788;28;20263;-75
2023/10/10 10:33:13;;;;;;;4.28;1.85;;;16.50;99.90;;;;;;4966423;28;20245;-73
2023/10/10 10:35:56;;;;;;;3.47;1.65;;;16.70;99.90;;;;;;4964096;28;20512;-74
2023/10/10 10:38:25;;;;;;;2.38;1.50;;;16.80;99.90;;;;;;4960492;28;20293;-73
2023/10/10 10:41:04;;;;;;;3.13;1.80;;;16.80;99.90;;;;;;4964322;28;20722;-73
2023/10/10 10:43:38;;;;;;;2.45;1.80;;;16.80;99.90;;;;;;4959153;28;20210;-73
2023/10/10 10:46:15;;;;;;;1.88;1.48;;;16.80;99.90;;;;;;4966898;28;20250;-74
2023/10/10 10:48:54;;;;;;;1.85;1.40;;;16.80;99.90;;;;;;4963687;28;20206;-73
2023/10/10 10:51:22;;;;;;;3.65;1.40;;;16.80;99.90;;;;;;4961718;28;20174;-72
2023/10/10 10:54:08;;;;;;;1.58;1.40;;;16.90;99.90;;;;;;4964972;28;20190;-74
2023/10/10 10:59:13;;;;;;;1.95;1.50;;;17.00;99.90;;;;;;4962953;28;20289;-74
2023/10/10 11:01:45;;;;;;;4.68;1.67;;;17.00;99.90;;;;;;4962331;28;20234;-74
2023/10/10 11:04:23;;;;;;;2.15;1.50;;;17.00;99.90;;;;;;4968673;28;20217;-74
2023/10/10 11:06:50;;;;;;;2.95;1.75;;;17.10;99.90;;;;;;4960099;28;20211;-73
2023/10/10 11:09:28;;;;;;;2.83;1.73;;;17.10;99.90;;;;;;4963509;28;20167;-73
2023/10/10 11:12:02;;;;;;;2.60;1.38;;;17.20;99.90;;;;;;4962051;28;20716;-72
2023/10/10 11:14:29;;;;;;;3.88;1.50;;;17.20;99.90;;;;;;4957797;28;20701;-74
2023/10/10 11:16:58;;;;;;;1.83;1.50;;;17.30;99.90;;;;;;4962860;28;20203;-72
2023/10/10 11:21:57;;;;;;;2.10;1.40;;;17.10;99.90;;;;;;4963576;28;20285;-73
2023/10/10 11:24:29;;;;;;;3.92;1.67;;;17.10;99.90;;;;;;4967533;28;20261;-72
2023/10/10 11:29:29;;;;;;;3.40;1.50;;;17.10;99.90;;;;;;4963061;28;20249;-73
2023/10/10 11:32:08;;;;;;;3.63;1.70;;;17.10;99.90;;;;;;4978301;28;20910;-74
2023/10/10 11:34:46;;;;;;;3.13;1.73;;;17.00;99.90;;;;;;4964115;28;20704;-74
2023/10/10 11:37:20;;;;;;;5.32;1.92;;;16.90;99.90;;;;;;4963224;28;20855;-74
2023/10/10 11:39:47;;;;;;;4.55;1.50;;;16.70;99.90;;;;;;4965527;28;20232;-74
2023/10/10 11:42:28;;;;;;;2.15;1.30;;;16.70;99.90;;;;;;4959140;28;20187;-75
2023/10/10 11:45:01;;;;;;;1.98;1.52;;;16.80;99.90;;;;;;4970740;28;20308;-71
2023/10/10 11:47:27;;;;;;;3.20;1.88;;;16.80;99.90;;;;;;4974783;28;20206;-73
2023/10/10 11:50:05;;;;;;;2.78;1.55;;;16.80;99.90;;;;;;4960930;28;20199;-73
2023/10/10 11:52:32;;;;;;;2.78;1.50;;;16.80;99.90;;;;;;4960596;28;20225;-73
2023/10/10 11:55:00;;;;;;;3.33;1.30;;;17.00;99.90;;;;;;4961375;28;20209;-74
2023/10/10 11:57:28;;;;;;;4.63;1.55;;;17.20;99.90;;;;;;4961878;28;20167;-72
2023/10/10 12:00:07;;;;;;;1.73;1.40;;;17.30;99.90;;;;;;4965256;28;20162;-73
2023/10/10 12:02:43;;;;;;;2.58;1.80;;;17.40;99.90;;;;;;4963514;28;20276;-73
2023/10/10 12:07:53;;;;;;;3.17;1.52;;;17.80;99.90;;;;;;4961338;28;20226;-71
2023/10/10 12:10:25;;;;;;;3.40;1.58;;;17.90;99.90;;;;;;4960081;28;20202;-72
2023/10/10 12:12:53;;;;;;;1.58;1.33;;;17.90;99.90;;;;;;4962226;28;20206;-73
2023/10/10 12:15:22;;;;;;;1.67;1.27;;;18.00;99.90;;;;;;4959313;28;20660;-73
2023/10/10 12:17:48;;;;;;;3.30;1.75;;;17.90;99.90;;;;;;4968241;28;20193;-74
2023/10/10 12:20:16;;;;;;;2.95;1.35;;;17.90;99.90;;;;;;4961223;28;20286;-73
2023/10/10 12:22:42;;;;;;;3.25;1.50;;;17.80;99.90;;;;;;4962258;28;20579;-73
2023/10/10 12:25:13;;;;;;;3.25;1.63;;;17.80;99.90;;;;;;4960785;28;20220;-73
2023/10/10 12:27:46;;;;;;;2.00;1.65;;;17.70;99.90;;;;;;4969798;28;20217;-73
2023/10/10 12:30:13;;;;;;;2.47;1.45;;;17.70;99.90;;;;;;4965661;28;20185;-74
2023/10/10 12:32:38;;;;;;;1.20;1.10;;;17.80;99.90;;;;;;4962694;28;20175;-74
2023/10/10 12:35:04;;;;;;;3.55;1.30;;;17.90;99.90;;;;;;4963333;28;20699;-74
2023/10/10 12:37:36;;;;;;;2.63;1.42;;;17.90;99.90;;;;;;4959815;28;20274;-73
2023/10/10 12:40:09;;;;;;;1.55;1.35;;;17.90;99.90;;;;;;4965181;28;20208;-73
2023/10/10 12:42:35;;;;;;;1.27;1.00;;;17.90;99.90;;;;;;4963055;28;20206;-74
2023/10/10 12:45:01;;;;;;;2.25;1.42;;;17.90;99.90;;;;;;4959690;28;20288;-73
2023/10/10 12:47:31;;;;;;;2.15;1.60;;;17.90;99.90;;;;;;4963798;28;20736;-73
2023/10/10 12:50:04;;;;;;;2.00;1.55;;;17.90;99.90;;;;;;4963195;28;20206;-73
2023/10/10 12:52:35;;;;;;;5.32;1.60;;;17.90;99.90;;;;;;4962497;28;20202;-73
2023/10/10 12:55:09;;;;;;;1.65;1.55;;;17.90;99.90;;;;;;4966506;28;20305;-74
2023/10/10 12:57:36;;;;;;;3.35;1.30;;;17.90;99.90;;;;;;4957181;28;20206;-74
2023/10/10 13:02:47;;;;;;;2.28;1.77;;;18.10;99.90;;;;;;4962923;28;20221;-73
2023/10/10 13:05:12;;;;;;;3.20;1.75;;;18.20;99.90;;;;;;4960611;28;20210;-74
2023/10/10 13:07:41;;;;;;;2.30;1.30;;;18.10;99.90;;;;;;4961743;28;20216;-74
2023/10/10 13:10:10;;;;;;;1.80;1.25;;;18.10;99.90;;;;;;4962017;28;20245;-74
2023/10/10 13:12:47;;;;;;;4.05;1.50;;;18.10;99.90;;;;;;4958441;28;20207;-74
2023/10/10 13:15:18;;;;;;;1.85;1.25;;;18.00;99.90;;;;;;4960624;28;20548;-73
2023/10/10 13:18:11;;;;;;;2.97;1.50;;;18.00;99.90;;;;;;4959647;28;20261;-73
2023/10/10 13:20:38;;;;;;;1.40;1.08;;;17.80;99.90;;;;;;4961525;28;20219;-73
2023/10/10 13:23:06;;;;;;;1.15;0.93;;;17.80;99.90;;;;;;4961554;28;20264;-73
2023/10/10 13:25:37;;;;;;;2.00;1.60;;;17.90;99.90;;;;;;4961249;28;20687;-74
2023/10/10 13:28:09;;;;;;;3.10;1.40;;;18.10;99.90;;;;;;4960309;28;20214;-74
2023/10/10 13:30:38;;;;;;;1.70;1.02;;;18.20;99.90;;;;;;4962449;28;20225;-72
2023/10/10 13:33:06;;;;;;;1.50;1.30;;;18.20;99.90;;;;;;4957518;28;20237;-74
2023/10/10 13:35:36;;;;;;;1.33;1.15;;;18.30;99.90;;;;;;4962898;28;20563;-74
2023/10/10 13:38:02;;;;;;;1.70;1.10;;;18.30;99.90;;;;;;4963381;28;20203;-74
2023/10/10 13:40:37;;;;;;;2.72;1.10;;;18.20;99.90;;;;;;4958761;28;20210;-73
2023/10/10 13:43:08;;;;;;;1.67;1.38;;;18.20;99.90;;;;;;4955784;28;20210;-73
2023/10/10 13:45:35;;;;;;;1.60;1.10;;;18.30;99.90;;;;;;4965554;28;20637;-73
2023/10/10 13:48:01;;;;;;;2.63;1.25;;;18.20;99.90;;;;;;4961310;28;20573;-74
2023/10/10 13:50:40;;;;;;;3.40;1.50;;;18.20;99.90;;;;;;4959311;28;20210;-73
2023/10/10 13:53:07;;;;;;;1.92;1.23;;;18.10;99.90;;;;;;4961926;28;20214;-75
2023/10/10 13:55:38;;;;;;;1.48;1.20;;;18.20;99.90;;;;;;4962050;28;20235;-75
2023/10/10 13:58:07;;;;;;;3.25;1.20;;;18.10;99.90;;;;;;4963694;28;20659;-74
2023/10/10 14:00:39;;;;;;;2.15;1.65;;;18.00;99.90;;;;;;4963498;28;20630;-74
2023/10/10 14:03:05;;;;;;;1.20;1.10;;;17.90;99.90;;;;;;4978476;28;20576;-73
2023/10/10 14:05:34;;;;;;;1.50;1.40;;;17.80;99.90;;;;;;4964664;28;20293;-74
2023/10/10 14:08:07;;;;;;;1.38;1.20;;;17.70;99.90;;;;;;4969055;28;20206;-74
2023/10/10 14:10:37;;;;;;;1.60;1.30;;;17.70;99.90;;;;;;4963368;28;20254;-75
2023/10/10 14:13:18;;;;;;;1.85;1.17;;;17.70;99.90;;;;;;4966172;28;20217;-73
2023/10/10 14:15:54;;;;;;;1.88;1.42;;;17.60;99.90;;;;;;4958165;28;20862;-75
2023/10/10 14:18:28;;;;;;;3.40;1.30;;;17.70;99.90;;;;;;4965097;28;20188;-74
2023/10/10 14:20:54;;;;;;;2.78;1.55;;;17.60;99.90;;;;;;4963353;28;20174;-73
2023/10/10 14:23:22;;;;;;;3.13;1.27;;;17.60;99.90;;;;;;4965018;28;20226;-74
2023/10/10 14:25:49;;;;;;;1.85;1.45;;;17.60;99.90;;;;;;4964341;28;20214;-74
2023/10/10 14:28:19;;;;;;;2.47;1.48;;;17.50;99.90;;;;;;4963777;28;20594;-74
2023/10/10 14:30:49;;;;;;;3.92;1.80;;;17.50;99.90;;;;;;4964377;28;20219;-75
2023/10/10 14:33:17;;;;;;;1.70;1.17;;;17.50;99.90;;;;;;4962691;28;20214;-74
2023/10/10 14:35:44;;;;;;;1.40;1.17;;;17.50;99.90;;;;;;4961524;28;20177;-73
2023/10/10 14:38:16;;;;;;;2.00;1.10;;;17.50;99.90;;;;;;4966973;28;20216;-74
2023/10/10 14:40:43;;;;;;;2.53;1.30;;;17.50;99.90;;;;;;4962488;28;20270;-73
2023/10/10 14:43:10;;;;;;;2.78;1.23;;;17.40;99.90;;;;;;4966297;28;20680;-73
2023/10/10 14:45:42;;;;;;;2.83;1.40;;;17.40;99.90;;;;;;4961675;28;20226;-73
2023/10/10 14:48:09;;;;;;;2.47;1.65;;;17.40;99.90;;;;;;4971378;28;20170;-74
2023/10/10 14:50:39;;;;;;;1.75;1.10;;;17.50;99.90;;;;;;4966660;28;20203;-73
2023/10/10 14:53:08;;;;;;;2.45;1.20;;;17.40;99.90;;;;;;4963025;28;20693;-74
2023/10/10 14:55:44;;;;;;;2.65;1.30;;;17.40;99.90;;;;;;4969164;28;20230;-74
2023/10/10 14:58:13;;;;;;;1.85;1.38;;;17.30;99.90;;;;;;4967240;28;20201;-73
2023/10/10 15:00:41;;;;;;;1.90;1.20;;;17.30;99.90;;;;;;4963545;28;20235;-73
2023/10/10 15:03:15;;;;;;;2.65;1.10;;;17.20;99.90;;;;;;4966330;28;20757;-75
2023/10/10 15:05:50;;;;;;;1.50;1.15;;;17.20;99.90;;;;;;4963410;28;20221;-74
2023/10/10 15:08:17;;;;;;;2.50;1.42;;;17.20;99.90;;;;;;4964846;28;20301;-74
2023/10/10 15:10:43;;;;;;;1.75;1.17;;;17.10;99.90;;;;;;4963032;28;20261;-71
2023/10/10 15:13:11;;;;;;;1.58;1.10;;;17.20;99.90;;;;;;4962648;28;20202;-74
2023/10/10 15:15:37;;;;;;;1.88;1.23;;;17.20;99.90;;;;;;4961240;28;20222;-75
2023/10/10 15:18:03;;;;;;;1.48;1.08;;;17.20;99.90;;;;;;4962096;28;20182;-74
2023/10/10 15:20:29;;;;;;;2.10;1.10;;;17.20;99.90;;;;;;4963703;28;20278;-74
2023/10/10 15:22:55;;;;;;;2.45;1.33;;;17.10;99.90;;;;;;4974698;28;20384;-73
2023/10/10 15:25:24;;;;;;;1.23;1.08;;;17.20;99.90;;;;;;4962276;28;20214;-75
2023/10/10 15:27:53;;;;;;;1.67;1.10;;;17.20;99.90;;;;;;4963060;28;20693;-74
2023/10/10 15:30:19;;;;;;;1.50;1.38;;;17.10;99.90;;;;;;4958121;28;20185;-74
2023/10/10 15:32:47;;;;;;;1.65;1.33;;;17.10;99.90;;;;;;4959589;28;20191;-74
2023/10/10 15:35:15;;;;;;;2.78;1.65;;;17.00;99.90;;;;;;4967065;28;20306;-75
2023/10/10 15:37:43;;;;;;;2.47;1.30;;;17.00;99.90;;;;;;4958190;28;20210;-75
2023/10/10 15:40:20;;;;;;;1.80;1.30;;;17.00;99.90;;;;;;4962980;28;20282;-75
2023/10/10 15:42:48;;;;;;;1.90;1.42;;;17.00;99.90;;;;;;4965109;28;20873;-74
2023/10/10 15:45:20;;;;;;;2.15;1.17;;;16.90;99.90;;;;;;4978614;28;20294;-73
2023/10/10 15:47:48;;;;;;;1.33;1.23;;;16.90;99.90;;;;;;4962276;28;20222;-74
2023/10/10 15:50:16;;;;;;;1.98;1.20;;;16.80;99.90;;;;;;4962405;28;20210;-74
2023/10/10 15:52:48;;;;;;;2.80;1.73;;;16.80;99.90;;;;;;4962289;28;20207;-73
2023/10/10 15:55:18;;;;;;;3.08;1.42;;;16.70;99.90;;;;;;4968620;28;20344;-75
2023/10/10 15:57:44;;;;;;;1.70;1.60;;;16.70;99.90;;;;;;4970918;28;20209;-74
2023/10/10 16:00:13;;;;;;;2.00;1.40;;;16.60;99.90;;;;;;4962441;28;20170;-74
2023/10/10 16:02:39;;;;;;;3.65;1.80;;;16.60;99.90;;;;;;4962141;28;20175;-75
2023/10/10 16:05:05;;;;;;;2.15;1.60;;;16.50;99.90;;;;;;4965999;28;20879;-74